Terminal Aerodrome Forecast
Issued by NWS

Home | Current Version | Previous Version | Graphics & Text | Print | Product List | Glossary Off
Versions: 1 2 3 4 5 6 7 8 9 10 11 12 13

000
FTUS42 KMHX 061720
TAFOAJ
TAF
KOAJ 061720Z 0618/0718 20008KT P6SM VCTS SCT050CB SCT100
     FM070100 19004KT P6SM BKN250
     FM070900 20003KT 4SM BR SCT008
     FM071300 20006KT P6SM SCT250
      AMD LTD TO CLD VIS AND WIND=

USA.gov is the U.S. government's official web portal to all federal, state and local government web resources and services.